sensor_id;sensor_type;location;lat;lon;timestamp;pressure;altitude;pressure_sealevel;temperature;humidity
61292;BME280;47165;42.664;23.368;2023-09-19T00:00:30;95382.00;;;20.72;49.95
61292;BME280;47165;42.664;23.368;2023-09-19T00:02:58;95386.31;;;20.73;50.11
61292;BME280;47165;42.664;23.368;2023-09-19T00:05:33;95388.00;;;20.74;49.86
61292;BME280;47165;42.664;23.368;2023-09-19T00:08:01;95387.44;;;20.70;49.92
61292;BME280;47165;42.664;23.368;2023-09-19T00:10:30;95392.63;;;20.72;50.41
61292;BME280;47165;42.664;23.368;2023-09-19T00:13:00;95384.22;;;20.76;50.28
61292;BME280;47165;42.664;23.368;2023-09-19T00:15:26;95382.53;;;20.75;50.02
61292;BME280;47165;42.664;23.368;2023-09-19T00:17:55;95385.63;;;20.70;50.31
61292;BME280;47165;42.664;23.368;2023-09-19T00:20:21;95386.44;;;20.71;50.22
61292;BME280;47165;42.664;23.368;2023-09-19T00:22:49;95379.91;;;20.65;50.77
61292;BME280;47165;42.664;23.368;2023-09-19T00:25:17;95384.50;;;20.63;50.34
61292;BME280;47165;42.664;23.368;2023-09-19T00:27:46;95378.34;;;20.63;50.34
61292;BME280;47165;42.664;23.368;2023-09-19T00:30:15;95384.19;;;20.57;50.59
61292;BME280;47165;42.664;23.368;2023-09-19T00:32:50;95384.78;;;20.60;51.12
61292;BME280;47165;42.664;23.368;2023-09-19T00:35:22;95381.16;;;20.61;50.56
61292;BME280;47165;42.664;23.368;2023-09-19T00:37:51;95379.03;;;20.55;51.18
61292;BME280;47165;42.664;23.368;2023-09-19T00:40:17;95376.53;;;20.54;51.10
61292;BME280;47165;42.664;23.368;2023-09-19T00:42:44;95377.47;;;20.53;51.01
61292;BME280;47165;42.664;23.368;2023-09-19T00:45:11;95364.63;;;20.48;51.34
61292;BME280;47165;42.664;23.368;2023-09-19T00:47:43;95365.91;;;20.44;51.59
61292;BME280;47165;42.664;23.368;2023-09-19T00:50:10;95357.94;;;20.44;51.71
61292;BME280;47165;42.664;23.368;2023-09-19T00:52:39;95357.09;;;20.34;51.75
61292;BME280;47165;42.664;23.368;2023-09-19T00:55:07;95363.22;;;20.34;51.74
61292;BME280;47165;42.664;23.368;2023-09-19T00:57:33;95369.78;;;20.30;51.80
61292;BME280;47165;42.664;23.368;2023-09-19T01:00:00;95369.66;;;20.32;51.95
61292;BME280;47165;42.664;23.368;2023-09-19T01:02:32;95365.03;;;20.24;52.16
61292;BME280;47165;42.664;23.368;2023-09-19T01:04:58;95357.78;;;20.16;52.02
61292;BME280;47165;42.664;23.368;2023-09-19T01:07:25;95351.63;;;20.06;52.46
61292;BME280;47165;42.664;23.368;2023-09-19T01:09:52;95359.88;;;20.13;52.66
61292;BME280;47165;42.664;23.368;2023-09-19T01:17:50;95365.59;;;20.08;52.92
61292;BME280;47165;42.664;23.368;2023-09-19T01:20:36;95358.88;;;20.04;52.86
61292;BME280;47165;42.664;23.368;2023-09-19T01:23:21;95363.75;;;19.99;53.12
61292;BME280;47165;42.664;23.368;2023-09-19T01:26:10;95368.34;;;19.97;53.01
61292;BME280;47165;42.664;23.368;2023-09-19T01:31:29;95371.81;;;19.87;53.66
61292;BME280;47165;42.664;23.368;2023-09-19T01:34:01;95369.00;;;19.89;53.45
61292;BME280;47165;42.664;23.368;2023-09-19T01:36:31;95367.91;;;19.92;53.47
61292;BME280;47165;42.664;23.368;2023-09-19T01:39:04;95363.88;;;19.87;53.40
61292;BME280;47165;42.664;23.368;2023-09-19T01:44:47;95356.16;;;19.84;53.94
61292;BME280;47165;42.664;23.368;2023-09-19T01:47:28;95351.41;;;19.78;53.93
61292;BME280;47165;42.664;23.368;2023-09-19T01:52:48;95357.69;;;19.77;54.37
61292;BME280;47165;42.664;23.368;2023-09-19T01:55:15;95348.34;;;19.73;54.48
61292;BME280;47165;42.664;23.368;2023-09-19T02:00:34;95364.25;;;19.73;54.87
61292;BME280;47165;42.664;23.368;2023-09-19T02:03:02;95354.53;;;19.62;54.67
61292;BME280;47165;42.664;23.368;2023-09-19T02:05:28;95363.75;;;19.68;54.54
61292;BME280;47165;42.664;23.368;2023-09-19T02:07:54;95373.66;;;19.66;54.83
61292;BME280;47165;42.664;23.368;2023-09-19T02:10:21;95380.19;;;19.62;55.01
61292;BME280;47165;42.664;23.368;2023-09-19T02:12:48;95377.28;;;19.65;54.73
61292;BME280;47165;42.664;23.368;2023-09-19T02:15:14;95370.59;;;19.61;55.06
61292;BME280;47165;42.664;23.368;2023-09-19T02:17:41;95366.94;;;19.62;54.83
61292;BME280;47165;42.664;23.368;2023-09-19T02:20:10;95367.66;;;19.64;55.04
61292;BME280;47165;42.664;23.368;2023-09-19T02:22:36;95371.28;;;19.63;54.80
61292;BME280;47165;42.664;23.368;2023-09-19T02:25:03;95375.19;;;19.59;54.94
61292;BME280;47165;42.664;23.368;2023-09-19T02:27:30;95359.81;;;19.53;55.22
61292;BME280;47165;42.664;23.368;2023-09-19T02:29:56;95367.59;;;19.44;55.39
61292;BME280;47165;42.664;23.368;2023-09-19T02:32:21;95368.94;;;19.39;55.74
61292;BME280;47165;42.664;23.368;2023-09-19T02:34:50;95356.84;;;19.46;55.61
61292;BME280;47165;42.664;23.368;2023-09-19T02:37:17;95349.03;;;19.44;55.66
61292;BME280;47165;42.664;23.368;2023-09-19T02:39:44;95353.63;;;19.42;55.55
61292;BME280;47165;42.664;23.368;2023-09-19T02:42:09;95347.34;;;19.43;55.61
61292;BME280;47165;42.664;23.368;2023-09-19T02:44:35;95339.41;;;19.43;55.54
61292;BME280;47165;42.664;23.368;2023-09-19T02:47:00;95337.03;;;19.40;55.56
61292;BME280;47165;42.664;23.368;2023-09-19T02:49:26;95338.81;;;19.30;55.89
61292;BME280;47165;42.664;23.368;2023-09-19T02:51:52;95333.88;;;19.25;56.07
61292;BME280;47165;42.664;23.368;2023-09-19T02:54:17;95332.09;;;19.26;55.88
61292;BME280;47165;42.664;23.368;2023-09-19T02:56:44;95331.66;;;19.21;56.26
61292;BME280;47165;42.664;23.368;2023-09-19T02:59:10;95326.63;;;19.18;56.35
61292;BME280;47165;42.664;23.368;2023-09-19T03:01:37;95329.66;;;19.13;56.81
61292;BME280;47165;42.664;23.368;2023-09-19T03:04:04;95323.22;;;19.06;56.87
61292;BME280;47165;42.664;23.368;2023-09-19T03:06:36;95322.63;;;19.02;56.91
61292;BME280;47165;42.664;23.368;2023-09-19T03:09:03;95326.81;;;19.05;57.06
61292;BME280;47165;42.664;23.368;2023-09-19T03:11:31;95327.16;;;19.12;56.80
61292;BME280;47165;42.664;23.368;2023-09-19T03:13:57;95317.53;;;19.10;56.91
61292;BME280;47165;42.664;23.368;2023-09-19T03:16:23;95325.22;;;19.14;56.72
61292;BME280;47165;42.664;23.368;2023-09-19T03:18:48;95319.75;;;19.15;56.93
61292;BME280;47165;42.664;23.368;2023-09-19T03:21:17;95320.47;;;19.17;56.55
61292;BME280;47165;42.664;23.368;2023-09-19T03:23:44;95321.28;;;19.08;56.87
61292;BME280;47165;42.664;23.368;2023-09-19T03:26:12;95316.50;;;19.02;57.09
61292;BME280;47165;42.664;23.368;2023-09-19T03:28:38;95319.69;;;18.96;57.15
61292;BME280;47165;42.664;23.368;2023-09-19T03:31:05;95317.03;;;18.96;57.58
61292;BME280;47165;42.664;23.368;2023-09-19T03:33:32;95319.94;;;18.93;57.46
61292;BME280;47165;42.664;23.368;2023-09-19T03:36:00;95320.09;;;18.91;57.11
61292;BME280;47165;42.664;23.368;2023-09-19T03:38:26;95318.38;;;18.90;57.28
61292;BME280;47165;42.664;23.368;2023-09-19T03:40:54;95324.19;;;18.84;57.57
61292;BME280;47165;42.664;23.368;2023-09-19T03:43:19;95323.09;;;18.86;57.70
61292;BME280;47165;42.664;23.368;2023-09-19T03:45:45;95328.38;;;18.86;57.58
61292;BME280;47165;42.664;23.368;2023-09-19T03:48:12;95329.50;;;18.84;57.83
61292;BME280;47165;42.664;23.368;2023-09-19T03:50:38;95332.41;;;18.81;57.81
61292;BME280;47165;42.664;23.368;2023-09-19T03:53:08;95329.78;;;18.81;57.50
61292;BME280;47165;42.664;23.368;2023-09-19T03:55:34;95339.50;;;18.80;57.83
61292;BME280;47165;42.664;23.368;2023-09-19T03:58:04;95342.00;;;18.82;57.89
61292;BME280;47165;42.664;23.368;2023-09-19T04:00:30;95343.47;;;18.75;57.90
61292;BME280;47165;42.664;23.368;2023-09-19T04:02:56;95333.72;;;18.75;58.16
61292;BME280;47165;42.664;23.368;2023-09-19T04:05:25;95342.28;;;18.79;57.91
61292;BME280;47165;42.664;23.368;2023-09-19T04:07:50;95345.84;;;18.78;58.09
61292;BME280;47165;42.664;23.368;2023-09-19T04:10:17;95351.88;;;18.80;58.16
61292;BME280;47165;42.664;23.368;2023-09-19T04:12:53;95351.13;;;18.89;57.85
61292;BME280;47165;42.664;23.368;2023-09-19T04:15:19;95348.41;;;18.79;57.65
61292;BME280;47165;42.664;23.368;2023-09-19T04:17:44;95352.88;;;18.79;57.51
61292;BME280;47165;42.664;23.368;2023-09-19T04:20:10;95352.13;;;18.77;57.67
61292;BME280;47165;42.664;23.368;2023-09-19T04:22:38;95354.19;;;18.73;57.81
61292;BME280;47165;42.664;23.368;2023-09-19T04:25:04;95363.66;;;18.76;57.80
61292;BME280;47165;42.664;23.368;2023-09-19T04:27:32;95352.75;;;18.69;58.17
61292;BME280;47165;42.664;23.368;2023-09-19T04:29:57;95354.69;;;18.67;57.80
61292;BME280;47165;42.664;23.368;2023-09-19T04:32:28;95351.41;;;18.75;57.63
61292;BME280;47165;42.664;23.368;2023-09-19T04:34:53;95354.19;;;18.73;57.87
61292;BME280;47165;42.664;23.368;2023-09-19T04:37:19;95348.31;;;18.69;57.52
61292;BME280;47165;42.664;23.368;2023-09-19T04:39:44;95353.34;;;18.73;57.31
61292;BME280;47165;42.664;23.368;2023-09-19T04:42:13;95348.91;;;18.73;57.29
61292;BME280;47165;42.664;23.368;2023-09-19T04:44:40;95351.66;;;18.72;57.25
61292;BME280;47165;42.664;23.368;2023-09-19T04:47:05;95343.53;;;18.63;57.51
61292;BME280;47165;42.664;23.368;2023-09-19T04:49:31;95348.56;;;18.66;57.60
61292;BME280;47165;42.664;23.368;2023-09-19T04:51:56;95341.16;;;18.60;57.85
61292;BME280;47165;42.664;23.368;2023-09-19T04:54:22;95340.56;;;18.57;58.16
61292;BME280;47165;42.664;23.368;2023-09-19T04:56:48;95344.09;;;18.46;58.58
61292;BME280;47165;42.664;23.368;2023-09-19T04:59:13;95342.28;;;18.46;58.65
61292;BME280;47165;42.664;23.368;2023-09-19T05:01:40;95339.25;;;18.51;58.97
61292;BME280;47165;42.664;23.368;2023-09-19T05:04:05;95331.53;;;18.59;58.72
61292;BME280;47165;42.664;23.368;2023-09-19T05:06:31;95329.91;;;18.68;58.75
61292;BME280;47165;42.664;23.368;2023-09-19T05:08:56;95324.38;;;18.71;58.43
61292;BME280;47165;42.664;23.368;2023-09-19T05:11:22;95328.31;;;18.77;58.24
61292;BME280;47165;42.664;23.368;2023-09-19T05:13:49;95328.38;;;18.86;58.27
61292;BME280;47165;42.664;23.368;2023-09-19T05:16:18;95333.75;;;18.96;58.27
61292;BME280;47165;42.664;23.368;2023-09-19T05:18:44;95330.69;;;19.01;58.63
61292;BME280;47165;42.664;23.368;2023-09-19T05:21:17;95334.81;;;19.15;58.44
61292;BME280;47165;42.664;23.368;2023-09-19T05:23:43;95338.63;;;19.22;58.29
61292;BME280;47165;42.664;23.368;2023-09-19T05:26:09;95325.81;;;19.27;57.96
61292;BME280;47165;42.664;23.368;2023-09-19T05:28:35;95325.03;;;19.36;58.44
61292;BME280;47165;42.664;23.368;2023-09-19T05:31:03;95326.44;;;19.40;58.35
61292;BME280;47165;42.664;23.368;2023-09-19T05:33:28;95331.91;;;19.48;57.68
61292;BME280;47165;42.664;23.368;2023-09-19T05:35:56;95321.50;;;19.57;57.56
61292;BME280;47165;42.664;23.368;2023-09-19T05:38:21;95321.06;;;19.61;57.20
61292;BME280;47165;42.664;23.368;2023-09-19T05:40:50;95325.97;;;19.66;56.79
61292;BME280;47165;42.664;23.368;2023-09-19T05:43:15;95326.44;;;19.71;56.82
61292;BME280;47165;42.664;23.368;2023-09-19T05:45:41;95316.91;;;19.68;57.04
61292;BME280;47165;42.664;23.368;2023-09-19T05:48:14;95318.91;;;19.76;56.74
61292;BME280;47165;42.664;23.368;2023-09-19T05:50:41;95311.25;;;19.83;56.37
61292;BME280;47165;42.664;23.368;2023-09-19T05:53:07;95316.06;;;19.68;55.73
61292;BME280;47165;42.664;23.368;2023-09-19T05:55:32;95309.84;;;19.79;55.92
61292;BME280;47165;42.664;23.368;2023-09-19T05:57:58;95305.56;;;19.87;56.42
61292;BME280;47165;42.664;23.368;2023-09-19T06:00:25;95309.31;;;19.95;55.87
61292;BME280;47165;42.664;23.368;2023-09-19T06:02:53;95308.50;;;20.04;55.42
61292;BME280;47165;42.664;23.368;2023-09-19T06:05:19;95307.66;;;20.13;55.24
61292;BME280;47165;42.664;23.368;2023-09-19T06:07:45;95306.56;;;20.06;55.57
61292;BME280;47165;42.664;23.368;2023-09-19T06:10:11;95296.09;;;20.04;55.14
61292;BME280;47165;42.664;23.368;2023-09-19T06:12:40;95300.56;;;20.23;55.01
61292;BME280;47165;42.664;23.368;2023-09-19T06:15:06;95296.22;;;20.32;54.50
61292;BME280;47165;42.664;23.368;2023-09-19T06:17:34;95298.06;;;20.41;54.49
61292;BME280;47165;42.664;23.368;2023-09-19T06:20:05;95298.19;;;20.49;54.29
61292;BME280;47165;42.664;23.368;2023-09-19T06:22:36;95304.34;;;20.60;54.43
61292;BME280;47165;42.664;23.368;2023-09-19T06:25:02;95294.56;;;20.70;54.24
61292;BME280;47165;42.664;23.368;2023-09-19T06:27:27;95292.72;;;20.80;54.27
61292;BME280;47165;42.664;23.368;2023-09-19T06:29:54;95302.78;;;20.86;53.98
61292;BME280;47165;42.664;23.368;2023-09-19T06:32:27;95297.59;;;20.95;53.51
61292;BME280;47165;42.664;23.368;2023-09-19T06:34:52;95301.50;;;21.00;53.03
61292;BME280;47165;42.664;23.368;2023-09-19T06:37:20;95293.22;;;21.03;53.01
61292;BME280;47165;42.664;23.368;2023-09-19T06:39:46;95295.03;;;21.13;53.14
61292;BME280;47165;42.664;23.368;2023-09-19T06:42:15;95294.28;;;21.20;52.56
61292;BME280;47165;42.664;23.368;2023-09-19T06:44:43;95295.94;;;21.31;52.22
61292;BME280;47165;42.664;23.368;2023-09-19T06:47:08;95291.00;;;21.36;52.15
61292;BME280;47165;42.664;23.368;2023-09-19T06:49:35;95297.47;;;21.43;51.90
61292;BME280;47165;42.664;23.368;2023-09-19T06:52:01;95294.91;;;21.42;51.63
61292;BME280;47165;42.664;23.368;2023-09-19T06:54:28;95304.16;;;21.47;51.22
61292;BME280;47165;42.664;23.368;2023-09-19T06:56:57;95300.59;;;21.57;51.42
61292;BME280;47165;42.664;23.368;2023-09-19T06:59:24;95305.63;;;21.60;51.64
61292;BME280;47165;42.664;23.368;2023-09-19T07:01:49;95305.06;;;21.56;51.14
61292;BME280;47165;42.664;23.368;2023-09-19T07:04:16;95306.84;;;21.65;51.29
61292;BME280;47165;42.664;23.368;2023-09-19T07:06:42;95312.25;;;21.74;50.75
61292;BME280;47165;42.664;23.368;2023-09-19T07:09:08;95308.72;;;21.83;50.63
61292;BME280;47165;42.664;23.368;2023-09-19T07:11:34;95307.56;;;21.85;50.58
61292;BME280;47165;42.664;23.368;2023-09-19T07:13:59;95314.63;;;21.77;49.92
61292;BME280;47165;42.664;23.368;2023-09-19T07:16:28;95308.19;;;21.52;49.88
61292;BME280;47165;42.664;23.368;2023-09-19T07:18:54;95312.63;;;21.51;50.56
61292;BME280;47165;42.664;23.368;2023-09-19T07:21:22;95312.31;;;21.64;50.16
61292;BME280;47165;42.664;23.368;2023-09-19T07:23:48;95314.75;;;21.75;49.92
61292;BME280;47165;42.664;23.368;2023-09-19T07:26:14;95307.28;;;21.88;49.78
61292;BME280;47165;42.664;23.368;2023-09-19T07:28:40;95310.63;;;21.90;49.64
61292;BME280;47165;42.664;23.368;2023-09-19T07:31:17;95305.31;;;22.08;49.41
61292;BME280;47165;42.664;23.368;2023-09-19T07:33:43;95303.88;;;22.14;49.76
61292;BME280;47165;42.664;23.368;2023-09-19T07:36:10;95300.03;;;22.26;49.32
61292;BME280;47165;42.664;23.368;2023-09-19T07:38:36;95298.06;;;22.28;49.12
61292;BME280;47165;42.664;23.368;2023-09-19T07:41:01;95305.97;;;22.38;48.74
61292;BME280;47165;42.664;23.368;2023-09-19T07:43:28;95308.31;;;22.41;47.93
61292;BME280;47165;42.664;23.368;2023-09-19T07:45:53;95305.72;;;22.49;47.73
61292;BME280;47165;42.664;23.368;2023-09-19T07:48:19;95298.28;;;22.53;47.65
61292;BME280;47165;42.664;23.368;2023-09-19T07:50:44;95310.16;;;22.59;48.03
61292;BME280;47165;42.664;23.368;2023-09-19T07:53:10;95301.16;;;22.60;47.84
61292;BME280;47165;42.664;23.368;2023-09-19T07:55:39;95309.22;;;22.68;47.91
61292;BME280;47165;42.664;23.368;2023-09-19T07:58:06;95305.63;;;22.77;47.86
61292;BME280;47165;42.664;23.368;2023-09-19T08:00:32;95306.66;;;22.84;47.43
61292;BME280;47165;42.664;23.368;2023-09-19T08:03:00;95314.03;;;22.90;47.70
61292;BME280;47165;42.664;23.368;2023-09-19T08:05:26;95313.13;;;23.00;47.48
61292;BME280;47165;42.664;23.368;2023-09-19T08:07:52;95318.81;;;23.05;46.93
61292;BME280;47165;42.664;23.368;2023-09-19T08:10:19;95314.72;;;22.66;47.04
61292;BME280;47165;42.664;23.368;2023-09-19T08:12:47;95303.19;;;22.84;46.25
61292;BME280;47165;42.664;23.368;2023-09-19T08:15:19;95298.69;;;22.84;46.34
61292;BME280;47165;42.664;23.368;2023-09-19T08:17:45;95291.31;;;22.78;46.24
61292;BME280;47165;42.664;23.368;2023-09-19T08:20:12;95284.69;;;22.82;46.66
61292;BME280;47165;42.664;23.368;2023-09-19T08:22:51;95286.47;;;23.00;46.26
61292;BME280;47165;42.664;23.368;2023-09-19T08:25:21;95283.16;;;22.98;45.87
61292;BME280;47165;42.664;23.368;2023-09-19T08:27:47;95281.72;;;23.03;46.19
61292;BME280;47165;42.664;23.368;2023-09-19T08:30:21;95265.59;;;23.13;45.98
61292;BME280;47165;42.664;23.368;2023-09-19T08:32:57;95264.06;;;23.02;46.23
61292;BME280;47165;42.664;23.368;2023-09-19T08:35:23;95274.41;;;23.05;46.31
61292;BME280;47165;42.664;23.368;2023-09-19T08:37:49;95285.78;;;23.16;46.13
61292;BME280;47165;42.664;23.368;2023-09-19T08:40:14;95281.38;;;23.33;46.22
61292;BME280;47165;42.664;23.368;2023-09-19T08:42:54;95290.13;;;23.51;45.37
61292;BME280;47165;42.664;23.368;2023-09-19T08:45:21;95284.97;;;23.58;45.20
61292;BME280;47165;42.664;23.368;2023-09-19T08:50:31;95279.56;;;23.41;44.56
61292;BME280;47165;42.664;23.368;2023-09-19T08:53:01;95276.28;;;23.47;44.49
61292;BME280;47165;42.664;23.368;2023-09-19T08:55:32;95268.78;;;23.51;44.72
61292;BME280;47165;42.664;23.368;2023-09-19T08:58:01;95269.38;;;23.71;44.77
61292;BME280;47165;42.664;23.368;2023-09-19T09:00:27;95268.59;;;23.87;44.10
61292;BME280;47165;42.664;23.368;2023-09-19T09:02:54;95270.63;;;23.93;44.10
61292;BME280;47165;42.664;23.368;2023-09-19T09:05:21;95264.47;;;24.01;44.43
61292;BME280;47165;42.664;23.368;2023-09-19T09:07:49;95272.66;;;24.16;44.47
61292;BME280;47165;42.664;23.368;2023-09-19T09:10:20;95263.84;;;24.23;44.26
61292;BME280;47165;42.664;23.368;2023-09-19T09:12:52;95267.84;;;24.36;44.11
61292;BME280;47165;42.664;23.368;2023-09-19T09:15:21;95263.19;;;24.46;43.97
61292;BME280;47165;42.664;23.368;2023-09-19T09:17:49;95267.56;;;24.55;43.43
61292;BME280;47165;42.664;23.368;2023-09-19T09:20:19;95260.22;;;24.57;43.15
61292;BME280;47165;42.664;23.368;2023-09-19T09:22:55;95258.91;;;24.61;42.98
61292;BME280;47165;42.664;23.368;2023-09-19T09:25:48;95249.50;;;24.90;42.39
61292;BME280;47165;42.664;23.368;2023-09-19T09:28:23;95237.47;;;25.02;42.46
61292;BME280;47165;42.664;23.368;2023-09-19T09:30:50;95245.75;;;25.16;42.77
61292;BME280;47165;42.664;23.368;2023-09-19T09:33:16;95245.78;;;25.24;41.81
61292;BME280;47165;42.664;23.368;2023-09-19T09:36:03;95245.03;;;25.46;41.97
61292;BME280;47165;42.664;23.368;2023-09-19T09:38:45;95234.94;;;25.57;41.27
61292;BME280;47165;42.664;23.368;2023-09-19T09:41:11;95232.81;;;25.52;41.28
61292;BME280;47165;42.664;23.368;2023-09-19T09:43:41;95227.28;;;25.54;40.86
61292;BME280;47165;42.664;23.368;2023-09-19T09:46:17;95225.03;;;25.65;40.81
61292;BME280;47165;42.664;23.368;2023-09-19T09:48:45;95227.16;;;25.78;40.80
61292;BME280;47165;42.664;23.368;2023-09-19T09:51:31;95222.56;;;25.95;40.44
61292;BME280;47165;42.664;23.368;2023-09-19T09:54:15;95212.00;;;26.02;39.55
61292;BME280;47165;42.664;23.368;2023-09-19T09:56:58;95212.19;;;26.23;39.75
61292;BME280;47165;42.664;23.368;2023-09-19T09:59:51;95204.69;;;26.42;39.65
61292;BME280;47165;42.664;23.368;2023-09-19T10:02:28;95205.91;;;26.54;39.18
61292;BME280;47165;42.664;23.368;2023-09-19T10:04:58;95207.25;;;26.58;38.63
61292;BME280;47165;42.664;23.368;2023-09-19T10:07:31;95208.88;;;26.59;38.53
61292;BME280;47165;42.664;23.368;2023-09-19T10:10:06;95209.47;;;26.69;38.62
61292;BME280;47165;42.664;23.368;2023-09-19T10:12:43;95206.44;;;26.73;38.54
61292;BME280;47165;42.664;23.368;2023-09-19T10:15:11;95203.94;;;26.71;38.34
61292;BME280;47165;42.664;23.368;2023-09-19T10:17:43;95197.03;;;26.77;38.43
61292;BME280;47165;42.664;23.368;2023-09-19T10:20:12;95196.94;;;26.85;38.24
61292;BME280;47165;42.664;23.368;2023-09-19T10:22:59;95197.84;;;26.92;38.00
61292;BME280;47165;42.664;23.368;2023-09-19T10:25:26;95200.34;;;26.94;38.33
61292;BME280;47165;42.664;23.368;2023-09-19T10:27:54;95188.91;;;26.85;37.85
61292;BME280;47165;42.664;23.368;2023-09-19T10:30:23;95187.59;;;26.96;38.09
61292;BME280;47165;42.664;23.368;2023-09-19T10:32:57;95192.31;;;27.08;38.07
61292;BME280;47165;42.664;23.368;2023-09-19T10:35:25;95184.09;;;27.10;37.28
61292;BME280;47165;42.664;23.368;2023-09-19T10:37:51;95180.94;;;27.06;37.45
61292;BME280;47165;42.664;23.368;2023-09-19T10:40:20;95186.69;;;27.18;37.15
61292;BME280;47165;42.664;23.368;2023-09-19T10:42:52;95180.38;;;27.11;36.83
61292;BME280;47165;42.664;23.368;2023-09-19T10:45:20;95186.22;;;27.15;37.55
61292;BME280;47165;42.664;23.368;2023-09-19T10:47:47;95182.78;;;27.21;37.89
61292;BME280;47165;42.664;23.368;2023-09-19T10:50:20;95179.28;;;27.20;36.96
61292;BME280;47165;42.664;23.368;2023-09-19T10:52:47;95181.91;;;27.28;36.50
61292;BME280;47165;42.664;23.368;2023-09-19T10:55:19;95173.47;;;27.17;36.60
61292;BME280;47165;42.664;23.368;2023-09-19T10:57:47;95170.88;;;27.08;36.70
61292;BME280;47165;42.664;23.368;2023-09-19T11:00:13;95165.25;;;27.03;37.10
61292;BME280;47165;42.664;23.368;2023-09-19T11:05:41;95170.13;;;27.15;37.03
61292;BME280;47165;42.664;23.368;2023-09-19T11:08:07;95161.66;;;27.26;37.10
61292;BME280;47165;42.664;23.368;2023-09-19T11:10:49;95163.69;;;27.24;36.73
61292;BME280;47165;42.664;23.368;2023-09-19T11:13:27;95152.97;;;27.24;36.80
61292;BME280;47165;42.664;23.368;2023-09-19T11:26:43;95151.91;;;27.76;36.00
61292;BME280;47165;42.664;23.368;2023-09-19T11:29:33;95152.75;;;27.77;35.67
61292;BME280;47165;42.664;23.368;2023-09-19T11:31:59;95145.97;;;27.81;35.84
61292;BME280;47165;42.664;23.368;2023-09-19T11:34:42;95137.91;;;27.96;35.77
61292;BME280;47165;42.664;23.368;2023-09-19T11:40:10;95129.72;;;28.04;36.20
61292;BME280;47165;42.664;23.368;2023-09-19T11:48:18;95111.13;;;28.52;35.19
61292;BME280;47165;42.664;23.368;2023-09-19T11:50:47;95102.41;;;28.78;34.84
61292;BME280;47165;42.664;23.368;2023-09-19T11:53:16;95093.41;;;28.93;34.41
61292;BME280;47165;42.664;23.368;2023-09-19T11:55:42;95100.06;;;29.03;34.36
61292;BME280;47165;42.664;23.368;2023-09-19T11:58:15;95101.44;;;29.21;33.92
61292;BME280;47165;42.664;23.368;2023-09-19T12:00:45;95097.31;;;29.32;33.96
61292;BME280;47165;42.664;23.368;2023-09-19T12:03:15;95096.72;;;29.43;34.00
61292;BME280;47165;42.664;23.368;2023-09-19T12:05:43;95104.41;;;29.46;33.78
61292;BME280;47165;42.664;23.368;2023-09-19T12:08:10;95104.66;;;29.64;33.85
61292;BME280;47165;42.664;23.368;2023-09-19T12:10:46;95096.25;;;29.87;32.79
61292;BME280;47165;42.664;23.368;2023-09-19T12:13:23;95091.09;;;30.19;32.16
61292;BME280;47165;42.664;23.368;2023-09-19T12:15:51;95078.69;;;30.32;32.10
61292;BME280;47165;42.664;23.368;2023-09-19T12:18:31;95080.50;;;30.71;31.75
61292;BME280;47165;42.664;23.368;2023-09-19T12:20:57;95077.09;;;31.16;31.59
61292;BME280;47165;42.664;23.368;2023-09-19T12:23:25;95073.69;;;31.72;30.61
61292;BME280;47165;42.664;23.368;2023-09-19T12:25:55;95076.91;;;32.19;29.89
61292;BME280;47165;42.664;23.368;2023-09-19T12:28:27;95071.28;;;32.71;29.37
61292;BME280;47165;42.664;23.368;2023-09-19T12:30:56;95066.41;;;33.35;28.74
61292;BME280;47165;42.664;23.368;2023-09-19T12:33:23;95064.84;;;34.18;27.37
61292;BME280;47165;42.664;23.368;2023-09-19T12:35:51;95050.16;;;34.85;26.65
61292;BME280;47165;42.664;23.368;2023-09-19T12:38:28;95048.78;;;35.23;25.51
61292;BME280;47165;42.664;23.368;2023-09-19T12:40:57;95050.41;;;35.93;25.53
61292;BME280;47165;42.664;23.368;2023-09-19T12:43:28;95053.75;;;36.46;23.87
61292;BME280;47165;42.664;23.368;2023-09-19T12:45:58;95049.94;;;36.81;23.01
61292;BME280;47165;42.664;23.368;2023-09-19T12:48:28;95038.59;;;37.28;23.02
61292;BME280;47165;42.664;23.368;2023-09-19T12:53:45;95036.06;;;37.98;22.26
61292;BME280;47165;42.664;23.368;2023-09-19T12:56:16;95035.88;;;38.37;21.88
61292;BME280;47165;42.664;23.368;2023-09-19T12:58:55;95036.16;;;38.73;21.29
61292;BME280;47165;42.664;23.368;2023-09-19T13:01:25;95031.88;;;38.87;21.03
61292;BME280;47165;42.664;23.368;2023-09-19T13:04:17;95019.03;;;38.93;20.74
61292;BME280;47165;42.664;23.368;2023-09-19T13:06:49;95027.78;;;39.42;20.71
61292;BME280;47165;42.664;23.368;2023-09-19T13:09:19;95015.28;;;39.72;20.14
61292;BME280;47165;42.664;23.368;2023-09-19T13:11:54;95013.41;;;39.88;19.91
61292;BME280;47165;42.664;23.368;2023-09-19T13:14:26;95010.13;;;39.86;19.37
61292;BME280;47165;42.664;23.368;2023-09-19T13:17:08;95007.69;;;40.00;19.69
61292;BME280;47165;42.664;23.368;2023-09-19T13:19:48;95009.88;;;40.44;18.85
61292;BME280;47165;42.664;23.368;2023-09-19T13:22:42;95012.34;;;40.25;19.37
61292;BME280;47165;42.664;23.368;2023-09-19T13:25:18;95006.88;;;40.15;19.11
61292;BME280;47165;42.664;23.368;2023-09-19T13:27:49;95005.78;;;40.11;19.28
61292;BME280;47165;42.664;23.368;2023-09-19T13:30:22;95004.41;;;40.44;19.05
61292;BME280;47165;42.664;23.368;2023-09-19T13:33:10;94997.81;;;40.55;18.86
61292;BME280;47165;42.664;23.368;2023-09-19T13:35:39;94991.22;;;40.67;19.08
61292;BME280;47165;42.664;23.368;2023-09-19T13:38:06;94989.00;;;40.89;19.00
61292;BME280;47165;42.664;23.368;2023-09-19T13:40:40;94991.75;;;40.84;18.40
61292;BME280;47165;42.664;23.368;2023-09-19T13:43:10;94982.34;;;41.11;18.71
61292;BME280;47165;42.664;23.368;2023-09-19T13:45:44;94985.91;;;41.11;18.70